sensor_id;sensor_type;location;lat;lon;timestamp;temperature;humidity
20182;DHT22;10250;50.756;6.172;2023-02-24T00:01:34;8.90;1.00
20182;DHT22;10250;50.756;6.172;2023-02-24T00:03:38;8.90;1.00
20182;DHT22;10250;50.756;6.172;2023-02-24T00:05:41;9.00;1.00
20182;DHT22;10250;50.756;6.172;2023-02-24T00:07:49;8.90;99.90
20182;DHT22;10250;50.756;6.172;2023-02-24T00:09:49;8.90;49.80
20182;DHT22;10250;50.756;6.172;2023-02-24T00:13:58;8.90;1.00
20182;DHT22;10250;50.756;6.172;2023-02-24T00:16:00;8.90;1.00
20182;DHT22;10250;50.756;6.172;2023-02-24T00:18:02;9.00;56.60
20182;DHT22;10250;50.756;6.172;2023-02-24T00:20:06;9.00;48.90
20182;DHT22;10250;50.756;6.172;2023-02-24T00:22:11;9.00;99.90
20182;DHT22;10250;50.756;6.172;2023-02-24T00:24:12;8.90;99.90
20182;DHT22;10250;50.756;6.172;2023-02-24T00:26:14;8.90;1.00
20182;DHT22;10250;50.756;6.172;2023-02-24T00:28:15;8.90;1.00
20182;DHT22;10250;50.756;6.172;2023-02-24T00:30:16;8.90;1.00
20182;DHT22;10250;50.756;6.172;2023-02-24T00:32:16;9.30;99.90
20182;DHT22;10250;50.756;6.172;2023-02-24T00:34:17;8.90;99.90
20182;DHT22;10250;50.756;6.172;2023-02-24T00:36:19;9.10;1.00
20182;DHT22;10250;50.756;6.172;2023-02-24T00:38:23;9.10;1.00
20182;DHT22;10250;50.756;6.172;2023-02-24T00:40:24;9.00;1.00
20182;DHT22;10250;50.756;6.172;2023-02-24T00:42:25;9.10;1.00
20182;DHT22;10250;50.756;6.172;2023-02-24T00:44:26;9.10;1.00
20182;DHT22;10250;50.756;6.172;2023-02-24T00:46:28;9.20;1.00
20182;DHT22;10250;50.756;6.172;2023-02-24T00:48:30;9.20;1.00
20182;DHT22;10250;50.756;6.172;2023-02-24T00:50:31;9.00;1.00
20182;DHT22;10250;50.756;6.172;2023-02-24T00:52:31;9.20;99.90
20182;DHT22;10250;50.756;6.172;2023-02-24T00:54:35;9.10;1.00
20182;DHT22;10250;50.756;6.172;2023-02-24T00:56:35;9.20;1.00
20182;DHT22;10250;50.756;6.172;2023-02-24T00:58:37;9.00;1.00
20182;DHT22;10250;50.756;6.172;2023-02-24T01:00:38;9.00;1.00
20182;DHT22;10250;50.756;6.172;2023-02-24T01:02:39;9.10;1.00
20182;DHT22;10250;50.756;6.172;2023-02-24T01:04:39;9.00;99.90
20182;DHT22;10250;50.756;6.172;2023-02-24T01:06:46;8.70;99.90
20182;DHT22;10250;50.756;6.172;2023-02-24T01:08:48;8.70;1.00
20182;DHT22;10250;50.756;6.172;2023-02-24T01:10:59;8.90;1.00
20182;DHT22;10250;50.756;6.172;2023-02-24T01:13:18;8.70;1.00
20182;DHT22;10250;50.756;6.172;2023-02-24T01:15:20;8.70;1.00
20182;DHT22;10250;50.756;6.172;2023-02-24T01:17:22;8.90;99.90
20182;DHT22;10250;50.756;6.172;2023-02-24T01:19:25;8.80;99.90
20182;DHT22;10250;50.756;6.172;2023-02-24T01:21:30;8.80;1.00
20182;DHT22;10250;50.756;6.172;2023-02-24T01:23:31;8.80;1.00
20182;DHT22;10250;50.756;6.172;2023-02-24T01:25:31;8.70;17.80
20182;DHT22;10250;50.756;6.172;2023-02-24T01:27:32;8.70;99.90
20182;DHT22;10250;50.756;6.172;2023-02-24T01:29:33;8.70;1.00
20182;DHT22;10250;50.756;6.172;2023-02-24T01:31:39;8.60;99.90
20182;DHT22;10250;50.756;6.172;2023-02-24T01:33:42;8.70;1.00
20182;DHT22;10250;50.756;6.172;2023-02-24T01:35:45;8.80;99.90
20182;DHT22;10250;50.756;6.172;2023-02-24T01:37:45;9.00;99.90
20182;DHT22;10250;50.756;6.172;2023-02-24T01:39:46;9.10;1.00
20182;DHT22;10250;50.756;6.172;2023-02-24T01:41:49;8.70;1.00
20182;DHT22;10250;50.756;6.172;2023-02-24T01:44:06;8.80;99.90
20182;DHT22;10250;50.756;6.172;2023-02-24T01:46:08;8.90;99.90
20182;DHT22;10250;50.756;6.172;2023-02-24T01:48:12;8.60;99.90
20182;DHT22;10250;50.756;6.172;2023-02-24T01:50:18;8.90;99.90
20182;DHT22;10250;50.756;6.172;2023-02-24T01:52:23;8.70;1.00
20182;DHT22;10250;50.756;6.172;2023-02-24T01:54:28;8.70;99.90
20182;DHT22;10250;50.756;6.172;2023-02-24T01:56:30;8.70;1.00
20182;DHT22;10250;50.756;6.172;2023-02-24T01:58:32;8.20;99.90
20182;DHT22;10250;50.756;6.172;2023-02-24T02:00:34;8.40;1.00
20182;DHT22;10250;50.756;6.172;2023-02-24T02:02:38;8.20;1.00
20182;DHT22;10250;50.756;6.172;2023-02-24T02:04:43;8.50;1.00
20182;DHT22;10250;50.756;6.172;2023-02-24T02:06:46;8.20;99.90
20182;DHT22;10250;50.756;6.172;2023-02-24T02:08:47;8.00;1.00
20182;DHT22;10250;50.756;6.172;2023-02-24T02:10:48;8.10;99.90
20182;DHT22;10250;50.756;6.172;2023-02-24T02:12:49;8.40;1.00
20182;DHT22;10250;50.756;6.172;2023-02-24T02:14:52;8.30;48.50
20182;DHT22;10250;50.756;6.172;2023-02-24T02:21:35;7.90;99.90
20182;DHT22;10250;50.756;6.172;2023-02-24T02:35:26;8.10;1.00
20182;DHT22;10250;50.756;6.172;2023-02-24T02:44:23;8.10;1.00
20182;DHT22;10250;50.756;6.172;2023-02-24T02:48:53;8.60;1.00
20182;DHT22;10250;50.756;6.172;2023-02-24T02:51:07;8.50;99.90
20182;DHT22;10250;50.756;6.172;2023-02-24T02:53:39;8.40;1.00
20182;DHT22;10250;50.756;6.172;2023-02-24T02:55:48;8.50;1.00
20182;DHT22;10250;50.756;6.172;2023-02-24T02:57:53;8.60;99.90
20182;DHT22;10250;50.756;6.172;2023-02-24T03:00:02;8.50;1.00
20182;DHT22;10250;50.756;6.172;2023-02-24T03:02:12;8.40;1.00
20182;DHT22;10250;50.756;6.172;2023-02-24T03:04:16;8.60;23.30
20182;DHT22;10250;50.756;6.172;2023-02-24T03:06:28;8.40;1.00
20182;DHT22;10250;50.756;6.172;2023-02-24T03:08:32;8.40;41.20
20182;DHT22;10250;50.756;6.172;2023-02-24T03:10:38;8.60;1.00
20182;DHT22;10250;50.756;6.172;2023-02-24T03:12:40;8.50;1.00
20182;DHT22;10250;50.756;6.172;2023-02-24T03:14:45;8.30;1.00
20182;DHT22;10250;50.756;6.172;2023-02-24T03:16:51;8.50;1.00
20182;DHT22;10250;50.756;6.172;2023-02-24T03:18:59;8.50;1.00
20182;DHT22;10250;50.756;6.172;2023-02-24T03:21:07;8.40;99.90
20182;DHT22;10250;50.756;6.172;2023-02-24T03:23:20;8.20;1.00
20182;DHT22;10250;50.756;6.172;2023-02-24T03:25:30;8.30;1.00
20182;DHT22;10250;50.756;6.172;2023-02-24T03:27:42;8.50;1.00
20182;DHT22;10250;50.756;6.172;2023-02-24T03:29:56;8.20;1.00
20182;DHT22;10250;50.756;6.172;2023-02-24T03:36:38;8.10;1.00
20182;DHT22;10250;50.756;6.172;2023-02-24T03:38:39;8.00;1.00
20182;DHT22;10250;50.756;6.172;2023-02-24T03:40:41;8.20;1.00
20182;DHT22;10250;50.756;6.172;2023-02-24T03:42:45;8.20;99.90
20182;DHT22;10250;50.756;6.172;2023-02-24T03:44:47;8.30;99.90
20182;DHT22;10250;50.756;6.172;2023-02-24T03:46:48;8.20;99.90
20182;DHT22;10250;50.756;6.172;2023-02-24T03:48:56;8.10;99.90
20182;DHT22;10250;50.756;6.172;2023-02-24T03:50:58;8.20;99.90
20182;DHT22;10250;50.756;6.172;2023-02-24T03:55:40;8.30;99.90
20182;DHT22;10250;50.756;6.172;2023-02-24T03:58:17;8.30;99.90
20182;DHT22;10250;50.756;6.172;2023-02-24T04:00:29;8.30;99.90
20182;DHT22;10250;50.756;6.172;2023-02-24T04:02:34;8.20;99.90
20182;DHT22;10250;50.756;6.172;2023-02-24T04:04:58;8.20;99.90
20182;DHT22;10250;50.756;6.172;2023-02-24T04:07:39;8.30;99.90
20182;DHT22;10250;50.756;6.172;2023-02-24T04:09:49;8.30;1.00
20182;DHT22;10250;50.756;6.172;2023-02-24T04:12:25;8.30;30.00
20182;DHT22;10250;50.756;6.172;2023-02-24T04:14:31;8.20;1.00
20182;DHT22;10250;50.756;6.172;2023-02-24T04:17:00;8.20;1.00
20182;DHT22;10250;50.756;6.172;2023-02-24T04:19:08;8.10;99.90
20182;DHT22;10250;50.756;6.172;2023-02-24T04:21:09;8.10;99.90
20182;DHT22;10250;50.756;6.172;2023-02-24T04:23:15;8.20;99.90
20182;DHT22;10250;50.756;6.172;2023-02-24T04:25:18;8.10;73.90
20182;DHT22;10250;50.756;6.172;2023-02-24T04:27:24;8.00;99.90
20182;DHT22;10250;50.756;6.172;2023-02-24T04:29:30;8.20;1.00
20182;DHT22;10250;50.756;6.172;2023-02-24T04:31:35;8.20;1.00
20182;DHT22;10250;50.756;6.172;2023-02-24T04:33:38;8.30;1.00
20182;DHT22;10250;50.756;6.172;2023-02-24T04:35:38;8.30;1.00
20182;DHT22;10250;50.756;6.172;2023-02-24T04:37:39;8.30;1.00
20182;DHT22;10250;50.756;6.172;2023-02-24T04:39:43;8.30;1.00
20182;DHT22;10250;50.756;6.172;2023-02-24T04:41:46;8.30;1.00
20182;DHT22;10250;50.756;6.172;2023-02-24T04:43:49;8.30;1.00
20182;DHT22;10250;50.756;6.172;2023-02-24T04:45:52;8.30;1.00
20182;DHT22;10250;50.756;6.172;2023-02-24T04:47:57;8.20;1.00
20182;DHT22;10250;50.756;6.172;2023-02-24T04:50:02;8.10;1.00
20182;DHT22;10250;50.756;6.172;2023-02-24T04:52:07;8.30;1.00
20182;DHT22;10250;50.756;6.172;2023-02-24T04:54:14;8.30;1.00
20182;DHT22;10250;50.756;6.172;2023-02-24T04:56:16;8.40;1.00
20182;DHT22;10250;50.756;6.172;2023-02-24T04:58:20;8.10;1.00
20182;DHT22;10250;50.756;6.172;2023-02-24T05:00:21;8.20;1.00
20182;DHT22;10250;50.756;6.172;2023-02-24T05:02:22;8.30;1.00
20182;DHT22;10250;50.756;6.172;2023-02-24T05:04:23;8.20;1.00
20182;DHT22;10250;50.756;6.172;2023-02-24T05:06:23;8.20;1.00
20182;DHT22;10250;50.756;6.172;2023-02-24T05:08:26;8.10;1.00
20182;DHT22;10250;50.756;6.172;2023-02-24T05:10:28;8.10;1.00
20182;DHT22;10250;50.756;6.172;2023-02-24T05:12:30;8.20;1.00
20182;DHT22;10250;50.756;6.172;2023-02-24T05:14:31;8.10;1.00
20182;DHT22;10250;50.756;6.172;2023-02-24T05:16:32;8.00;1.00
20182;DHT22;10250;50.756;6.172;2023-02-24T05:18:33;8.10;1.00
20182;DHT22;10250;50.756;6.172;2023-02-24T05:20:42;8.20;1.00
20182;DHT22;10250;50.756;6.172;2023-02-24T05:23:01;8.10;1.00
20182;DHT22;10250;50.756;6.172;2023-02-24T05:25:02;8.00;42.40
20182;DHT22;10250;50.756;6.172;2023-02-24T05:27:04;8.20;1.00
20182;DHT22;10250;50.756;6.172;2023-02-24T05:29:05;8.10;1.00
20182;DHT22;10250;50.756;6.172;2023-02-24T05:33:18;7.90;1.00
20182;DHT22;10250;50.756;6.172;2023-02-24T05:35:21;8.10;1.00
20182;DHT22;10250;50.756;6.172;2023-02-24T05:37:22;8.00;1.00
20182;DHT22;10250;50.756;6.172;2023-02-24T05:39:23;8.20;1.00
20182;DHT22;10250;50.756;6.172;2023-02-24T05:43:35;8.10;1.00
20182;DHT22;10250;50.756;6.172;2023-02-24T05:49:40;8.10;1.00
20182;DHT22;10250;50.756;6.172;2023-02-24T05:53:53;8.00;1.00
20182;DHT22;10250;50.756;6.172;2023-02-24T08:44:57;8.10;99.90
20182;DHT22;10250;50.756;6.172;2023-02-24T09:40:16;8.00;73.50
20182;DHT22;10250;50.756;6.172;2023-02-24T09:42:19;8.30;58.80
20182;DHT22;10250;50.756;6.172;2023-02-24T09:50:47;8.00;43.40
20182;DHT22;10250;50.756;6.172;2023-02-24T09:55:18;8.20;24.80
20182;DHT22;10250;50.756;6.172;2023-02-24T10:02:40;8.50;6.40
20182;DHT22;10250;50.756;6.172;2023-02-24T10:07:33;8.20;1.00
20182;DHT22;10250;50.756;6.172;2023-02-24T10:11:44;8.40;1.00
20182;DHT22;10250;50.756;6.172;2023-02-24T10:13:55;8.40;1.00
20182;DHT22;10250;50.756;6.172;2023-02-24T10:16:00;8.40;1.00
20182;DHT22;10250;50.756;6.172;2023-02-24T10:18:24;8.50;1.00
20182;DHT22;10250;50.756;6.172;2023-02-24T10:20:36;8.60;1.00
20182;DHT22;10250;50.756;6.172;2023-02-24T10:22:53;8.50;1.00
20182;DHT22;10250;50.756;6.172;2023-02-24T10:25:28;8.50;1.00
20182;DHT22;10250;50.756;6.172;2023-02-24T10:27:40;8.50;1.00
20182;DHT22;10250;50.756;6.172;2023-02-24T10:32:22;8.60;1.00
20182;DHT22;10250;50.756;6.172;2023-02-24T10:34:31;8.50;1.00
20182;DHT22;10250;50.756;6.172;2023-02-24T10:36:32;8.40;1.00
20182;DHT22;10250;50.756;6.172;2023-02-24T10:38:38;8.40;1.00
20182;DHT22;10250;50.756;6.172;2023-02-24T10:41:03;8.50;1.00
20182;DHT22;10250;50.756;6.172;2023-02-24T10:43:06;8.30;1.00
20182;DHT22;10250;50.756;6.172;2023-02-24T10:45:16;8.30;1.00
20182;DHT22;10250;50.756;6.172;2023-02-24T10:47:26;8.40;1.00
20182;DHT22;10250;50.756;6.172;2023-02-24T10:49:30;8.50;1.00
20182;DHT22;10250;50.756;6.172;2023-02-24T10:51:38;8.40;1.00
20182;DHT22;10250;50.756;6.172;2023-02-24T10:53:40;8.20;1.00
20182;DHT22;10250;50.756;6.172;2023-02-24T10:55:45;8.50;1.00
20182;DHT22;10250;50.756;6.172;2023-02-24T10:57:46;8.50;1.00
20182;DHT22;10250;50.756;6.172;2023-02-24T10:59:55;8.70;1.00
20182;DHT22;10250;50.756;6.172;2023-02-24T11:02:22;8.50;1.00
20182;DHT22;10250;50.756;6.172;2023-02-24T11:04:37;8.40;1.00
20182;DHT22;10250;50.756;6.172;2023-02-24T11:07:06;8.30;1.00
20182;DHT22;10250;50.756;6.172;2023-02-24T11:11:33;8.20;1.00
20182;DHT22;10250;50.756;6.172;2023-02-24T11:14:03;8.40;1.00
20182;DHT22;10250;50.756;6.172;2023-02-24T11:16:22;8.20;1.00
20182;DHT22;10250;50.756;6.172;2023-02-24T11:18:45;8.30;1.00
20182;DHT22;10250;50.756;6.172;2023-02-24T11:20:50;8.30;1.00
20182;DHT22;10250;50.756;6.172;2023-02-24T11:22:53;8.40;1.00
20182;DHT22;10250;50.756;6.172;2023-02-24T11:24:55;8.50;1.00
20182;DHT22;10250;50.756;6.172;2023-02-24T11:26:56;8.40;1.00
20182;DHT22;10250;50.756;6.172;2023-02-24T11:40:22;8.30;1.00
20182;DHT22;10250;50.756;6.172;2023-02-24T11:43:08;8.30;1.00
20182;DHT22;10250;50.756;6.172;2023-02-24T11:45:02;8.30;1.00
20182;DHT22;10250;50.756;6.172;2023-02-24T11:47:12;8.50;1.00
20182;DHT22;10250;50.756;6.172;2023-02-24T11:51:30;8.30;1.00
20182;DHT22;10250;50.756;6.172;2023-02-24T11:53:57;8.20;1.00
20182;DHT22;10250;50.756;6.172;2023-02-24T11:56:02;8.40;1.00
20182;DHT22;10250;50.756;6.172;2023-02-24T11:58:13;8.40;1.00
20182;DHT22;10250;50.756;6.172;2023-02-24T12:00:19;8.40;1.00
20182;DHT22;10250;50.756;6.172;2023-02-24T12:09:17;8.40;1.00
20182;DHT22;10250;50.756;6.172;2023-02-24T12:11:36;8.30;1.00
20182;DHT22;10250;50.756;6.172;2023-02-24T12:13:38;8.40;1.00
20182;DHT22;10250;50.756;6.172;2023-02-24T12:15:49;8.00;1.00
20182;DHT22;10250;50.756;6.172;2023-02-24T12:17:58;8.20;1.00
20182;DHT22;10250;50.756;6.172;2023-02-24T12:20:24;8.30;1.00
20182;DHT22;10250;50.756;6.172;2023-02-24T12:22:36;8.30;1.00
20182;DHT22;10250;50.756;6.172;2023-02-24T12:24:42;8.40;1.00
20182;DHT22;10250;50.756;6.172;2023-02-24T12:36:07;8.50;1.00
20182;DHT22;10250;50.756;6.172;2023-02-24T12:38:31;8.50;1.00
20182;DHT22;10250;50.756;6.172;2023-02-24T12:40:53;8.40;1.00
20182;DHT22;10250;50.756;6.172;2023-02-24T12:50:25;8.40;1.00
20182;DHT22;10250;50.756;6.172;2023-02-24T12:52:39;8.40;1.00
20182;DHT22;10250;50.756;6.172;2023-02-24T12:54:56;8.40;1.00
20182;DHT22;10250;50.756;6.172;2023-02-24T12:59:03;8.20;1.00
20182;DHT22;10250;50.756;6.172;2023-02-24T13:05:47;8.40;1.00
20182;DHT22;10250;50.756;6.172;2023-02-24T13:12:24;8.20;1.00
20182;DHT22;10250;50.756;6.172;2023-02-24T13:14:28;8.10;1.00
20182;DHT22;10250;50.756;6.172;2023-02-24T13:16:33;8.20;1.00
20182;DHT22;10250;50.756;6.172;2023-02-24T13:18:36;8.40;1.00
20182;DHT22;10250;50.756;6.172;2023-02-24T13:20:38;8.30;1.00
20182;DHT22;10250;50.756;6.172;2023-02-24T13:22:41;8.40;1.00
20182;DHT22;10250;50.756;6.172;2023-02-24T13:24:56;8.40;1.00
20182;DHT22;10250;50.756;6.172;2023-02-24T13:29:17;8.10;1.00
20182;DHT22;10250;50.756;6.172;2023-02-24T13:31:17;8.10;16.00
20182;DHT22;10250;50.756;6.172;2023-02-24T13:33:27;8.20;26.80
20182;DHT22;10250;50.756;6.172;2023-02-24T13:35:30;8.20;20.20
20182;DHT22;10250;50.756;6.172;2023-02-24T13:39:35;8.20;24.30
20182;DHT22;10250;50.756;6.172;2023-02-24T13:41:39;8.30;37.50
20182;DHT22;10250;50.756;6.172;2023-02-24T13:43:40;8.30;38.20
20182;DHT22;10250;50.756;6.172;2023-02-24T13:45:40;8.30;83.50
20182;DHT22;10250;50.756;6.172;2023-02-24T13:50:56;8.40;60.30
20182;DHT22;10250;50.756;6.172;2023-02-24T13:57:20;8.30;62.00
20182;DHT22;10250;50.756;6.172;2023-02-24T14:04:30;8.20;99.90
20182;DHT22;10250;50.756;6.172;2023-02-24T14:06:32;8.30;99.90
20182;DHT22;10250;50.756;6.172;2023-02-24T14:10:36;8.40;99.90
20182;DHT22;10250;50.756;6.172;2023-02-24T14:12:41;8.40;99.90
20182;DHT22;10250;50.756;6.172;2023-02-24T14:14:43;8.40;99.90
20182;DHT22;10250;50.756;6.172;2023-02-24T14:16:47;8.20;99.90
20182;DHT22;10250;50.756;6.172;2023-02-24T14:18:58;8.30;99.90
20182;DHT22;10250;50.756;6.172;2023-02-24T14:20:58;8.40;99.90
20182;DHT22;10250;50.756;6.172;2023-02-24T14:23:00;8.20;99.90
20182;DHT22;10250;50.756;6.172;2023-02-24T14:25:05;8.40;99.90
20182;DHT22;10250;50.756;6.172;2023-02-24T14:27:28;8.40;99.90
20182;DHT22;10250;50.756;6.172;2023-02-24T14:29:33;8.40;99.90
20182;DHT22;10250;50.756;6.172;2023-02-24T14:31:34;8.20;99.90
20182;DHT22;10250;50.756;6.172;2023-02-24T14:33:37;8.20;99.90
20182;DHT22;10250;50.756;6.172;2023-02-24T14:35:41;8.30;99.90
20182;DHT22;10250;50.756;6.172;2023-02-24T14:37:44;8.30;99.90
20182;DHT22;10250;50.756;6.172;2023-02-24T14:39:53;8.40;99.90
20182;DHT22;10250;50.756;6.172;2023-02-24T14:46:18;8.30;99.90
20182;DHT22;10250;50.756;6.172;2023-02-24T14:48:29;8.20;99.90
20182;DHT22;10250;50.756;6.172;2023-02-24T14:54:48;8.30;99.90
20182;DHT22;10250;50.756;6.172;2023-02-24T14:56:51;8.30;99.90
20182;DHT22;10250;50.756;6.172;2023-02-24T14:59:04;8.30;99.90
20182;DHT22;10250;50.756;6.172;2023-02-24T15:01:35;8.20;99.90
20182;DHT22;10250;50.756;6.172;2023-02-24T15:03:44;8.30;99.90
20182;DHT22;10250;50.756;6.172;2023-02-24T15:05:48;8.40;99.90
20182;DHT22;10250;50.756;6.172;2023-02-24T15:07:49;8.40;99.90
20182;DHT22;10250;50.756;6.172;2023-02-24T15:09:50;8.30;99.90
20182;DHT22;10250;50.756;6.172;2023-02-24T15:11:52;8.20;99.90
20182;DHT22;10250;50.756;6.172;2023-02-24T15:14:04;8.30;99.90
20182;DHT22;10250;50.756;6.172;2023-02-24T15:16:22;8.20;99.90
20182;DHT22;10250;50.756;6.172;2023-02-24T15:18:26;8.30;99.90
20182;DHT22;10250;50.756;6.172;2023-02-24T15:20:30;8.40;99.90
20182;DHT22;10250;50.756;6.172;2023-02-24T15:22:32;8.40;99.90
20182;DHT22;10250;50.756;6.172;2023-02-24T15:24:34;8.40;99.90
20182;DHT22;10250;50.756;6.172;2023-02-24T15:26:34;8.40;99.90
20182;DHT22;10250;50.756;6.172;2023-02-24T15:28:36;8.40;99.90
20182;DHT22;10250;50.756;6.172;2023-02-24T15:30:39;8.00;99.90
20182;DHT22;10250;50.756;6.172;2023-02-24T15:35:00;8.40;99.90
20182;DHT22;10250;50.756;6.172;2023-02-24T15:37:11;8.40;99.90
20182;DHT22;10250;50.756;6.172;2023-02-24T15:39:22;8.40;99.90
20182;DHT22;10250;50.756;6.172;2023-02-24T15:41:23;8.20;99.90
20182;DHT22;10250;50.756;6.172;2023-02-24T15:43:33;8.30;99.90
20182;DHT22;10250;50.756;6.172;2023-02-24T15:45:38;8.20;99.90
20182;DHT22;10250;50.756;6.172;2023-02-24T15:47:43;8.20;99.90
20182;DHT22;10250;50.756;6.172;2023-02-24T15:49:44;8.10;1.00
20182;DHT22;10250;50.756;6.172;2023-02-24T15:51:46;8.10;1.00
20182;DHT22;10250;50.756;6.172;2023-02-24T15:53:47;8.20;1.00
20182;DHT22;10250;50.756;6.172;2023-02-24T15:55:48;8.20;1.00
20182;DHT22;10250;50.756;6.172;2023-02-24T15:57:59;8.30;99.90
20182;DHT22;10250;50.756;6.172;2023-02-24T16:00:00;8.20;99.90
20182;DHT22;10250;50.756;6.172;2023-02-24T16:02:00;8.20;99.90
20182;DHT22;10250;50.756;6.172;2023-02-24T16:04:01;8.20;1.00
20182;DHT22;10250;50.756;6.172;2023-02-24T16:06:04;8.10;1.00
20182;DHT22;10250;50.756;6.172;2023-02-24T16:08:10;8.10;1.00
20182;DHT22;10250;50.756;6.172;2023-02-24T16:10:21;8.10;1.00
20182;DHT22;10250;50.756;6.172;2023-02-24T16:12:31;8.10;1.00
20182;DHT22;10250;50.756;6.172;2023-02-24T16:14:33;8.10;1.00
20182;DHT22;10250;50.756;6.172;2023-02-24T16:16:34;8.10;1.00
20182;DHT22;10250;50.756;6.172;2023-02-24T16:18:34;8.20;1.00
20182;DHT22;10250;50.756;6.172;2023-02-24T16:20:35;8.20;1.00
20182;DHT22;10250;50.756;6.172;2023-02-24T16:24:39;8.10;1.00
20182;DHT22;10250;50.756;6.172;2023-02-24T16:28:49;8.10;1.00
20182;DHT22;10250;50.756;6.172;2023-02-24T16:34:53;8.00;1.00
20182;DHT22;10250;50.756;6.172;2023-02-24T16:36:53;8.20;1.00
20182;DHT22;10250;50.756;6.172;2023-02-24T16:38:56;8.10;1.00
20182;DHT22;10250;50.756;6.172;2023-02-24T16:42:57;8.10;1.00
20182;DHT22;10250;50.756;6.172;2023-02-24T16:53:06;7.90;1.00
20182;DHT22;10250;50.756;6.172;2023-02-24T17:17:28;8.10;1.00
20182;DHT22;10250;50.756;6.172;2023-02-24T17:19:28;8.30;1.00
20182;DHT22;10250;50.756;6.172;2023-02-24T17:21:29;8.30;1.00
20182;DHT22;10250;50.756;6.172;2023-02-24T17:23:30;8.20;1.00
20182;DHT22;10250;50.756;6.172;2023-02-24T17:25:31;8.20;1.00
20182;DHT22;10250;50.756;6.172;2023-02-24T17:27:32;8.20;1.00
20182;DHT22;10250;50.756;6.172;2023-02-24T17:29:33;8.30;1.00
20182;DHT22;10250;50.756;6.172;2023-02-24T17:31:34;8.30;1.00
20182;DHT22;10250;50.756;6.172;2023-02-24T17:33:34;8.30;1.00
20182;DHT22;10250;50.756;6.172;2023-02-24T17:35:35;8.30;1.00
20182;DHT22;10250;50.756;6.172;2023-02-24T17:37:36;8.30;1.00
20182;DHT22;10250;50.756;6.172;2023-02-24T17:39:36;8.30;1.00
20182;DHT22;10250;50.756;6.172;2023-02-24T17:41:37;8.20;99.90
20182;DHT22;10250;50.756;6.172;2023-02-24T17:43:37;8.30;1.00
20182;DHT22;10250;50.756;6.172;2023-02-24T17:45:43;8.30;1.00
20182;DHT22;10250;50.756;6.172;2023-02-24T17:47:44;8.20;1.00
20182;DHT22;10250;50.756;6.172;2023-02-24T17:49:44;8.40;1.00
20182;DHT22;10250;50.756;6.172;2023-02-24T17:51:45;8.40;99.90
20182;DHT22;10250;50.756;6.172;2023-02-24T17:53:46;8.40;99.90
20182;DHT22;10250;50.756;6.172;2023-02-24T17:55:47;8.20;1.00
20182;DHT22;10250;50.756;6.172;2023-02-24T17:57:47;8.30;1.00
20182;DHT22;10250;50.756;6.172;2023-02-24T17:59:48;8.30;1.00
20182;DHT22;10250;50.756;6.172;2023-02-24T18:01:48;8.40;1.00
20182;DHT22;10250;50.756;6.172;2023-02-24T18:03:49;8.40;1.00
20182;DHT22;10250;50.756;6.172;2023-02-24T18:06:08;8.30;99.90
20182;DHT22;10250;50.756;6.172;2023-02-24T18:08:09;8.30;1.00
20182;DHT22;10250;50.756;6.172;2023-02-24T18:10:10;8.40;1.00
20182;DHT22;10250;50.756;6.172;2023-02-24T18:12:11;8.40;1.00
20182;DHT22;10250;50.756;6.172;2023-02-24T18:14:12;8.20;1.00
20182;DHT22;10250;50.756;6.172;2023-02-24T18:16:13;8.20;1.00
20182;DHT22;10250;50.756;6.172;2023-02-24T18:18:14;8.20;1.00
20182;DHT22;10250;50.756;6.172;2023-02-24T18:20:15;8.30;1.00
20182;DHT22;10250;50.756;6.172;2023-02-24T18:22:15;8.30;1.00
20182;DHT22;10250;50.756;6.172;2023-02-24T18:24:16;8.20;1.00
20182;DHT22;10250;50.756;6.172;2023-02-24T18:26:16;8.20;1.00
20182;DHT22;10250;50.756;6.172;2023-02-24T18:28:17;8.30;1.00
20182;DHT22;10250;50.756;6.172;2023-02-24T18:30:18;8.20;1.00
20182;DHT22;10250;50.756;6.172;2023-02-24T18:32:18;8.20;1.00
20182;DHT22;10250;50.756;6.172;2023-02-24T18:34:19;8.20;1.00
20182;DHT22;10250;50.756;6.172;2023-02-24T18:36:20;8.00;1.00
20182;DHT22;10250;50.756;6.172;2023-02-24T18:38:20;8.00;1.00
20182;DHT22;10250;50.756;6.172;2023-02-24T18:40:24;8.00;1.00
20182;DHT22;10250;50.756;6.172;2023-02-24T18:42:25;8.10;1.00
20182;DHT22;10250;50.756;6.172;2023-02-24T18:44:26;8.20;1.00
20182;DHT22;10250;50.756;6.172;2023-02-24T18:46:27;8.10;1.00
20182;DHT22;10250;50.756;6.172;2023-02-24T18:48:28;8.10;1.00
20182;DHT22;10250;50.756;6.172;2023-02-24T18:50:31;8.10;1.00
20182;DHT22;10250;50.756;6.172;2023-02-24T18:52:31;8.00;1.00
20182;DHT22;10250;50.756;6.172;2023-02-24T18:54:34;8.10;1.00
20182;DHT22;10250;50.756;6.172;2023-02-24T18:56:34;8.10;1.00
20182;DHT22;10250;50.756;6.172;2023-02-24T18:58:35;8.20;1.00
20182;DHT22;10250;50.756;6.172;2023-02-24T19:00:36;8.20;1.00
20182;DHT22;10250;50.756;6.172;2023-02-24T19:02:37;8.10;1.00
20182;DHT22;10250;50.756;6.172;2023-02-24T19:04:37;8.10;1.00
20182;DHT22;10250;50.756;6.172;2023-02-24T19:06:38;8.20;1.00
20182;DHT22;10250;50.756;6.172;2023-02-24T19:08:41;8.10;1.00
20182;DHT22;10250;50.756;6.172;2023-02-24T19:10:42;8.30;1.00
20182;DHT22;10250;50.756;6.172;2023-02-24T19:12:43;8.10;1.00
20182;DHT22;10250;50.756;6.172;2023-02-24T19:14:43;8.30;1.00
20182;DHT22;10250;50.756;6.172;2023-02-24T19:16:44;8.30;1.00
20182;DHT22;10250;50.756;6.172;2023-02-24T19:18:49;8.20;1.00
20182;DHT22;10250;50.756;6.172;2023-02-24T19:20:49;8.30;1.00
20182;DHT22;10250;50.756;6.172;2023-02-24T19:22:50;8.20;1.00
20182;DHT22;10250;50.756;6.172;2023-02-24T19:24:51;8.10;1.00
20182;DHT22;10250;50.756;6.172;2023-02-24T19:26:52;8.30;1.00
20182;DHT22;10250;50.756;6.172;2023-02-24T19:28:55;8.20;1.00
20182;DHT22;10250;50.756;6.172;2023-02-24T19:30:56;8.20;1.00
20182;DHT22;10250;50.756;6.172;2023-02-24T19:32:56;8.20;1.00
20182;DHT22;10250;50.756;6.172;2023-02-24T19:34:57;8.30;1.00
20182;DHT22;10250;50.756;6.172;2023-02-24T19:38:59;8.00;1.00
20182;DHT22;10250;50.756;6.172;2023-02-24T19:51:24;8.20;1.00
20182;DHT22;10250;50.756;6.172;2023-02-24T19:53:25;8.20;1.00
20182;DHT22;10250;50.756;6.172;2023-02-24T19:55:25;8.10;1.00
20182;DHT22;10250;50.756;6.172;2023-02-24T19:57:26;8.10;1.00
20182;DHT22;10250;50.756;6.172;2023-02-24T19:59:27;7.90;1.00
20182;DHT22;10250;50.756;6.172;2023-02-24T20:01:28;7.90;1.00
20182;DHT22;10250;50.756;6.172;2023-02-24T20:03:29;7.80;1.00
20182;DHT22;10250;50.756;6.172;2023-02-24T20:07:33;8.00;1.00
20182;DHT22;10250;50.756;6.172;2023-02-24T20:09:33;8.10;1.00
20182;DHT22;10250;50.756;6.172;2023-02-24T20:17:38;7.90;1.00
20182;DHT22;10250;50.756;6.172;2023-02-24T20:19:38;8.20;1.00
20182;DHT22;10250;50.756;6.172;2023-02-24T20:21:39;8.20;99.90
20182;DHT22;10250;50.756;6.172;2023-02-24T20:23:41;7.80;1.00
20182;DHT22;10250;50.756;6.172;2023-02-24T20:25:49;7.90;99.90
20182;DHT22;10250;50.756;6.172;2023-02-24T20:27:50;8.00;99.90
20182;DHT22;10250;50.756;6.172;2023-02-24T20:29:51;7.90;99.90
20182;DHT22;10250;50.756;6.172;2023-02-24T20:31:51;8.00;99.90
20182;DHT22;10250;50.756;6.172;2023-02-24T20:33:52;8.00;99.90
20182;DHT22;10250;50.756;6.172;2023-02-24T20:35:52;8.00;99.90
20182;DHT22;10250;50.756;6.172;2023-02-24T20:37:55;8.20;99.90
20182;DHT22;10250;50.756;6.172;2023-02-24T20:39:55;8.20;99.90
20182;DHT22;10250;50.756;6.172;2023-02-24T20:41:56;8.20;99.90
20182;DHT22;10250;50.756;6.172;2023-02-24T20:43:56;7.90;99.90